This is the latest recevied weather packets stored in our database for station/object IZ5MMH-1. If no packets are shown the sender has not sent any weather packets the latest 10 day(s).
| Time | Temp. | Humidity | Pressure | Rain* | Wind** | Luminosity | Snow |
|---|---|---|---|---|---|---|---|
| 1787657683 | 32.78° C | 45% | 1011.9 hPa | - | - | - | - |
| 1787657084 | 32.78° C | 45% | 1011.9 hPa | - | - | - | - |
| 1787656484 | 32.78° C | 45% | 1011.7 hPa | - | - | - | - |
| 1787655883 | 32.78° C | 45% | 1011.6 hPa | - | - | - | - |
| 1787655283 | 32.78° C | 45% | 1011.4 hPa | - | - | - | - |
| 1787654683 | 32.78° C | 44% | 1011.5 hPa | - | - | - | - |
| 1787654083 | 32.78° C | 43% | 1011.5 hPa | - | - | - | - |
| 1787653484 | 32.78° C | 42% | 1011.5 hPa | - | - | - | - |
| 1787652884 | 32.78° C | 43% | 1011.5 hPa | - | - | - | - |
| 1787652284 | 32.78° C | 44% | 1011.4 hPa | - | - | - | - |
| 1787651683 | 32.22° C | 44% | 1011.4 hPa | - | - | - | - |
| 1787651084 | 32.22° C | 42% | 1011.3 hPa | - | - | - | - |
| 1787650484 | 32.22° C | 43% | 1011.2 hPa | - | - | - | - |
| 1787649883 | 31.67° C | 44% | 1011.1 hPa | - | - | - | - |
| 1787649284 | 31.11° C | 45% | 1011.1 hPa | - | - | - | - |
| 1787648684 | 30° C | 47% | 1011.1 hPa | - | - | - | - |
| 1787648084 | 30.56° C | 46% | 1011 hPa | - | - | - | - |
| 1787647483 | 31.67° C | 44% | 1010.9 hPa | - | - | - | - |
| 1787646884 | 31.67° C | 45% | 1011 hPa | - | - | - | - |
| 1787646284 | 31.11° C | 48% | 1010.9 hPa | - | - | - | - |
| 1787645683 | 30.56° C | 49% | 1011 hPa | - | - | - | - |
| 1787645084 | 30° C | 51% | 1011.1 hPa | - | - | - | - |
| 1787644483 | 29.44° C | 54% | 1011.1 hPa | - | - | - | - |
| 1787643885 | 27.78° C | 56% | 1011 hPa | - | - | - | - |
| 1787643284 | 27.22° C | 57% | 1011.1 hPa | - | - | - | - |
* Rain since midnight (hover to see other rain measurements)
** Current wind speed in m/s (hover to see current wind gust speed)